sensor_id;sensor_type;location;lat;lon;timestamp;P1;durP1;ratioP1;P2;durP2;ratioP2
10795;SDS011;5450;42.994;23.372;2022-08-16T00:00:35;11.60;;;10.80;;
10795;SDS011;5450;42.994;23.372;2022-08-16T00:03:04;11.03;;;10.07;;
10795;SDS011;5450;42.994;23.372;2022-08-16T00:05:33;10.63;;;9.73;;
10795;SDS011;5450;42.994;23.372;2022-08-16T00:08:00;11.77;;;10.87;;
10795;SDS011;5450;42.994;23.372;2022-08-16T00:10:29;11.83;;;10.93;;
10795;SDS011;5450;42.994;23.372;2022-08-16T00:12:58;11.27;;;10.47;;
10795;SDS011;5450;42.994;23.372;2022-08-16T00:15:32;12.40;;;11.27;;
10795;SDS011;5450;42.994;23.372;2022-08-16T00:18:02;11.63;;;10.80;;
10795;SDS011;5450;42.994;23.372;2022-08-16T00:20:30;11.90;;;11.00;;
10795;SDS011;5450;42.994;23.372;2022-08-16T00:22:57;11.50;;;10.60;;
10795;SDS011;5450;42.994;23.372;2022-08-16T00:25:31;12.03;;;11.07;;
10795;SDS011;5450;42.994;23.372;2022-08-16T00:27:59;12.33;;;11.33;;
10795;SDS011;5450;42.994;23.372;2022-08-16T00:30:25;12.67;;;11.70;;
10795;SDS011;5450;42.994;23.372;2022-08-16T00:32:54;12.20;;;11.20;;
10795;SDS011;5450;42.994;23.372;2022-08-16T00:35:25;11.97;;;11.07;;
10795;SDS011;5450;42.994;23.372;2022-08-16T00:37:55;12.57;;;11.30;;
10795;SDS011;5450;42.994;23.372;2022-08-16T00:40:23;11.43;;;10.50;;
10795;SDS011;5450;42.994;23.372;2022-08-16T00:46:02;11.43;;;10.63;;
10795;SDS011;5450;42.994;23.372;2022-08-16T00:48:36;11.77;;;10.70;;
10795;SDS011;5450;42.994;23.372;2022-08-16T00:51:05;10.97;;;10.17;;
10795;SDS011;5450;42.994;23.372;2022-08-16T00:56:38;10.50;;;9.80;;
10795;SDS011;5450;42.994;23.372;2022-08-16T00:59:10;10.77;;;10.07;;
10795;SDS011;5450;42.994;23.372;2022-08-16T01:01:40;11.90;;;10.90;;
10795;SDS011;5450;42.994;23.372;2022-08-16T01:04:16;11.00;;;10.20;;
10795;SDS011;5450;42.994;23.372;2022-08-16T01:06:46;10.83;;;10.03;;
10795;SDS011;5450;42.994;23.372;2022-08-16T01:09:20;11.10;;;10.23;;
10795;SDS011;5450;42.994;23.372;2022-08-16T01:11:49;10.93;;;10.03;;
10795;SDS011;5450;42.994;23.372;2022-08-16T01:14:20;11.57;;;10.67;;
10795;SDS011;5450;42.994;23.372;2022-08-16T01:16:53;10.83;;;9.93;;
10795;SDS011;5450;42.994;23.372;2022-08-16T01:19:22;9.53;;;8.90;;
10795;SDS011;5450;42.994;23.372;2022-08-16T01:21:55;9.93;;;9.23;;
10795;SDS011;5450;42.994;23.372;2022-08-16T01:24:29;11.10;;;10.10;;
10795;SDS011;5450;42.994;23.372;2022-08-16T01:27:00;9.97;;;8.97;;
10795;SDS011;5450;42.994;23.372;2022-08-16T01:29:31;10.23;;;9.47;;
10795;SDS011;5450;42.994;23.372;2022-08-16T01:32:02;9.47;;;8.67;;
10795;SDS011;5450;42.994;23.372;2022-08-16T01:34:33;10.40;;;9.60;;
10795;SDS011;5450;42.994;23.372;2022-08-16T01:37:01;9.17;;;8.40;;
10795;SDS011;5450;42.994;23.372;2022-08-16T01:39:32;10.53;;;9.63;;
10795;SDS011;5450;42.994;23.372;2022-08-16T01:42:01;10.67;;;9.97;;
10795;SDS011;5450;42.994;23.372;2022-08-16T01:44:29;10.17;;;9.47;;
10795;SDS011;5450;42.994;23.372;2022-08-16T01:46:57;11.23;;;10.23;;
10795;SDS011;5450;42.994;23.372;2022-08-16T01:49:27;11.10;;;10.20;;
10795;SDS011;5450;42.994;23.372;2022-08-16T01:51:59;10.97;;;10.20;;
10795;SDS011;5450;42.994;23.372;2022-08-16T01:54:30;10.87;;;10.00;;
10795;SDS011;5450;42.994;23.372;2022-08-16T01:57:00;10.73;;;9.97;;
10795;SDS011;5450;42.994;23.372;2022-08-16T01:59:29;11.00;;;10.20;;
10795;SDS011;5450;42.994;23.372;2022-08-16T02:01:59;10.30;;;9.50;;
10795;SDS011;5450;42.994;23.372;2022-08-16T02:04:27;10.27;;;9.43;;
10795;SDS011;5450;42.994;23.372;2022-08-16T02:06:59;9.70;;;9.00;;
10795;SDS011;5450;42.994;23.372;2022-08-16T02:09:29;10.03;;;9.33;;
10795;SDS011;5450;42.994;23.372;2022-08-16T02:11:58;9.90;;;9.17;;
10795;SDS011;5450;42.994;23.372;2022-08-16T02:14:27;10.53;;;9.73;;
10795;SDS011;5450;42.994;23.372;2022-08-16T02:16:56;10.40;;;9.40;;
10795;SDS011;5450;42.994;23.372;2022-08-16T02:19:27;10.57;;;9.77;;
10795;SDS011;5450;42.994;23.372;2022-08-16T02:22:06;10.90;;;10.00;;
10795;SDS011;5450;42.994;23.372;2022-08-16T02:24:35;10.63;;;9.57;;
10795;SDS011;5450;42.994;23.372;2022-08-16T02:27:07;10.20;;;9.40;;
10795;SDS011;5450;42.994;23.372;2022-08-16T02:29:34;11.17;;;10.27;;
10795;SDS011;5450;42.994;23.372;2022-08-16T02:32:01;11.03;;;10.13;;
10795;SDS011;5450;42.994;23.372;2022-08-16T02:34:32;10.50;;;9.63;;
10795;SDS011;5450;42.994;23.372;2022-08-16T02:37:00;10.37;;;9.67;;
10795;SDS011;5450;42.994;23.372;2022-08-16T02:39:28;10.93;;;10.00;;
10795;SDS011;5450;42.994;23.372;2022-08-16T02:41:55;11.50;;;10.50;;
10795;SDS011;5450;42.994;23.372;2022-08-16T02:44:24;11.47;;;10.47;;
10795;SDS011;5450;42.994;23.372;2022-08-16T02:46:52;11.20;;;10.40;;
10795;SDS011;5450;42.994;23.372;2022-08-16T02:49:19;10.87;;;10.10;;
10795;SDS011;5450;42.994;23.372;2022-08-16T02:51:47;11.13;;;10.23;;
10795;SDS011;5450;42.994;23.372;2022-08-16T02:54:15;11.17;;;10.37;;
10795;SDS011;5450;42.994;23.372;2022-08-16T02:56:44;11.37;;;10.37;;
10795;SDS011;5450;42.994;23.372;2022-08-16T02:59:14;11.43;;;10.53;;
10795;SDS011;5450;42.994;23.372;2022-08-16T03:01:44;11.40;;;10.50;;
10795;SDS011;5450;42.994;23.372;2022-08-16T03:07:18;11.00;;;10.20;;
10795;SDS011;5450;42.994;23.372;2022-08-16T03:09:45;12.00;;;11.03;;
10795;SDS011;5450;42.994;23.372;2022-08-16T03:12:12;11.87;;;10.93;;
10795;SDS011;5450;42.994;23.372;2022-08-16T03:14:42;11.70;;;10.80;;
10795;SDS011;5450;42.994;23.372;2022-08-16T03:17:12;11.43;;;10.67;;
10795;SDS011;5450;42.994;23.372;2022-08-16T03:19:39;13.00;;;11.93;;
10795;SDS011;5450;42.994;23.372;2022-08-16T03:22:06;12.60;;;11.57;;
10795;SDS011;5450;42.994;23.372;2022-08-16T03:24:33;12.30;;;11.40;;
10795;SDS011;5450;42.994;23.372;2022-08-16T03:27:01;13.80;;;12.50;;
10795;SDS011;5450;42.994;23.372;2022-08-16T03:29:32;11.97;;;10.97;;
10795;SDS011;5450;42.994;23.372;2022-08-16T03:32:02;12.07;;;11.07;;
10795;SDS011;5450;42.994;23.372;2022-08-16T03:34:31;11.77;;;10.90;;
10795;SDS011;5450;42.994;23.372;2022-08-16T03:36:59;11.80;;;10.70;;
10795;SDS011;5450;42.994;23.372;2022-08-16T03:39:28;11.63;;;10.63;;
10795;SDS011;5450;42.994;23.372;2022-08-16T03:41:56;11.93;;;11.03;;
10795;SDS011;5450;42.994;23.372;2022-08-16T03:44:23;11.43;;;10.57;;
10795;SDS011;5450;42.994;23.372;2022-08-16T03:46:50;11.63;;;10.77;;
10795;SDS011;5450;42.994;23.372;2022-08-16T03:49:19;12.20;;;10.63;;
10795;SDS011;5450;42.994;23.372;2022-08-16T03:51:49;11.70;;;10.70;;
10795;SDS011;5450;42.994;23.372;2022-08-16T03:54:16;11.50;;;10.47;;
10795;SDS011;5450;42.994;23.372;2022-08-16T03:56:43;11.50;;;10.70;;
10795;SDS011;5450;42.994;23.372;2022-08-16T03:59:10;11.67;;;10.87;;
10795;SDS011;5450;42.994;23.372;2022-08-16T04:01:39;12.03;;;11.03;;
10795;SDS011;5450;42.994;23.372;2022-08-16T04:04:06;11.57;;;10.47;;
10795;SDS011;5450;42.994;23.372;2022-08-16T04:06:34;11.43;;;10.50;;
10795;SDS011;5450;42.994;23.372;2022-08-16T04:09:04;11.80;;;10.70;;
10795;SDS011;5450;42.994;23.372;2022-08-16T04:11:31;11.27;;;10.40;;
10795;SDS011;5450;42.994;23.372;2022-08-16T04:14:07;11.93;;;10.83;;
10795;SDS011;5450;42.994;23.372;2022-08-16T04:16:34;11.90;;;10.97;;
10795;SDS011;5450;42.994;23.372;2022-08-16T04:19:01;12.23;;;11.13;;
10795;SDS011;5450;42.994;23.372;2022-08-16T04:21:29;11.70;;;10.80;;
10795;SDS011;5450;42.994;23.372;2022-08-16T04:24:04;11.60;;;10.77;;
10795;SDS011;5450;42.994;23.372;2022-08-16T04:26:37;12.17;;;11.17;;
10795;SDS011;5450;42.994;23.372;2022-08-16T04:29:05;11.00;;;10.20;;
10795;SDS011;5450;42.994;23.372;2022-08-16T04:31:33;12.57;;;11.47;;
10795;SDS011;5450;42.994;23.372;2022-08-16T04:34:00;12.40;;;11.50;;
10795;SDS011;5450;42.994;23.372;2022-08-16T04:36:27;11.97;;;11.03;;
10795;SDS011;5450;42.994;23.372;2022-08-16T04:38:54;12.83;;;11.70;;
10795;SDS011;5450;42.994;23.372;2022-08-16T04:41:23;12.57;;;11.57;;
10795;SDS011;5450;42.994;23.372;2022-08-16T04:43:53;12.17;;;11.17;;
10795;SDS011;5450;42.994;23.372;2022-08-16T04:46:20;12.30;;;11.27;;
10795;SDS011;5450;42.994;23.372;2022-08-16T04:48:47;12.53;;;11.43;;
10795;SDS011;5450;42.994;23.372;2022-08-16T04:51:15;12.17;;;11.00;;
10795;SDS011;5450;42.994;23.372;2022-08-16T04:53:43;11.10;;;10.20;;
10795;SDS011;5450;42.994;23.372;2022-08-16T04:56:11;11.50;;;10.33;;
10795;SDS011;5450;42.994;23.372;2022-08-16T04:58:43;11.47;;;10.47;;
10795;SDS011;5450;42.994;23.372;2022-08-16T05:01:10;11.23;;;10.47;;
10795;SDS011;5450;42.994;23.372;2022-08-16T05:06:40;12.10;;;11.00;;
10795;SDS011;5450;42.994;23.372;2022-08-16T05:09:08;12.67;;;11.57;;
10795;SDS011;5450;42.994;23.372;2022-08-16T05:11:37;12.50;;;11.30;;
10795;SDS011;5450;42.994;23.372;2022-08-16T05:14:07;11.40;;;10.50;;
10795;SDS011;5450;42.994;23.372;2022-08-16T05:16:40;11.30;;;10.50;;
10795;SDS011;5450;42.994;23.372;2022-08-16T05:19:08;11.67;;;10.77;;
10795;SDS011;5450;42.994;23.372;2022-08-16T05:21:36;10.83;;;9.97;;
10795;SDS011;5450;42.994;23.372;2022-08-16T05:24:04;11.37;;;10.47;;
10795;SDS011;5450;42.994;23.372;2022-08-16T05:26:32;11.27;;;10.30;;
10795;SDS011;5450;42.994;23.372;2022-08-16T05:29:02;14.33;;;11.43;;
10795;SDS011;5450;42.994;23.372;2022-08-16T05:31:32;11.73;;;10.83;;
10795;SDS011;5450;42.994;23.372;2022-08-16T05:34:00;12.10;;;11.00;;
10795;SDS011;5450;42.994;23.372;2022-08-16T05:36:28;12.93;;;11.73;;
10795;SDS011;5450;42.994;23.372;2022-08-16T05:38:58;11.43;;;10.60;;
10795;SDS011;5450;42.994;23.372;2022-08-16T05:41:30;11.80;;;11.00;;
10795;SDS011;5450;42.994;23.372;2022-08-16T05:44:00;11.70;;;10.80;;
10795;SDS011;5450;42.994;23.372;2022-08-16T05:46:27;11.17;;;10.37;;
10795;SDS011;5450;42.994;23.372;2022-08-16T05:48:59;11.97;;;10.87;;
10795;SDS011;5450;42.994;23.372;2022-08-16T05:51:28;11.70;;;10.90;;
10795;SDS011;5450;42.994;23.372;2022-08-16T05:53:54;10.67;;;9.77;;
10795;SDS011;5450;42.994;23.372;2022-08-16T05:56:22;10.77;;;9.87;;
10795;SDS011;5450;42.994;23.372;2022-08-16T05:58:55;11.13;;;10.30;;
10795;SDS011;5450;42.994;23.372;2022-08-16T06:01:24;11.43;;;9.67;;
10795;SDS011;5450;42.994;23.372;2022-08-16T06:03:51;10.10;;;9.40;;
10795;SDS011;5450;42.994;23.372;2022-08-16T06:06:26;10.03;;;9.43;;
10795;SDS011;5450;42.994;23.372;2022-08-16T06:08:53;10.50;;;9.53;;
10795;SDS011;5450;42.994;23.372;2022-08-16T06:11:21;11.17;;;10.10;;
10795;SDS011;5450;42.994;23.372;2022-08-16T06:13:48;10.30;;;9.50;;
10795;SDS011;5450;42.994;23.372;2022-08-16T06:16:15;10.27;;;9.37;;
10795;SDS011;5450;42.994;23.372;2022-08-16T06:18:42;10.30;;;9.60;;
10795;SDS011;5450;42.994;23.372;2022-08-16T06:21:12;9.70;;;9.00;;
10795;SDS011;5450;42.994;23.372;2022-08-16T06:23:42;9.73;;;9.07;;
10795;SDS011;5450;42.994;23.372;2022-08-16T06:26:09;10.67;;;9.77;;
10795;SDS011;5450;42.994;23.372;2022-08-16T06:28:37;9.47;;;8.70;;
10795;SDS011;5450;42.994;23.372;2022-08-16T06:31:04;10.50;;;9.80;;
10795;SDS011;5450;42.994;23.372;2022-08-16T06:33:31;9.63;;;8.93;;
10795;SDS011;5450;42.994;23.372;2022-08-16T06:35:58;9.07;;;8.47;;
10795;SDS011;5450;42.994;23.372;2022-08-16T06:38:28;9.20;;;8.60;;
10795;SDS011;5450;42.994;23.372;2022-08-16T06:41:04;11.47;;;10.43;;
10795;SDS011;5450;42.994;23.372;2022-08-16T06:43:32;10.00;;;9.30;;
10795;SDS011;5450;42.994;23.372;2022-08-16T06:46:01;8.93;;;8.33;;
10795;SDS011;5450;42.994;23.372;2022-08-16T06:48:30;8.33;;;7.83;;
10795;SDS011;5450;42.994;23.372;2022-08-16T06:51:00;9.27;;;8.63;;
10795;SDS011;5450;42.994;23.372;2022-08-16T06:53:28;8.77;;;8.07;;
10795;SDS011;5450;42.994;23.372;2022-08-16T06:55:58;9.50;;;8.90;;
10795;SDS011;5450;42.994;23.372;2022-08-16T06:58:32;9.80;;;9.07;;
10795;SDS011;5450;42.994;23.372;2022-08-16T07:01:00;8.40;;;7.80;;
10795;SDS011;5450;42.994;23.372;2022-08-16T07:03:27;8.30;;;7.80;;
10795;SDS011;5450;42.994;23.372;2022-08-16T07:05:55;7.75;;;7.13;;
10795;SDS011;5450;42.994;23.372;2022-08-16T07:08:23;7.30;;;6.80;;
10795;SDS011;5450;42.994;23.372;2022-08-16T07:10:52;7.78;;;7.28;;
10795;SDS011;5450;42.994;23.372;2022-08-16T07:13:20;7.45;;;6.90;;
10795;SDS011;5450;42.994;23.372;2022-08-16T07:15:50;7.28;;;6.88;;
10795;SDS011;5450;42.994;23.372;2022-08-16T07:18:18;7.20;;;6.80;;
10795;SDS011;5450;42.994;23.372;2022-08-16T07:20:46;7.70;;;7.10;;
10795;SDS011;5450;42.994;23.372;2022-08-16T07:23:15;7.35;;;6.85;;
10795;SDS011;5450;42.994;23.372;2022-08-16T07:25:42;7.15;;;6.65;;
10795;SDS011;5450;42.994;23.372;2022-08-16T07:28:12;7.30;;;6.90;;
10795;SDS011;5450;42.994;23.372;2022-08-16T07:30:40;6.85;;;6.45;;
10795;SDS011;5450;42.994;23.372;2022-08-16T07:33:10;5.45;;;5.07;;
10795;SDS011;5450;42.994;23.372;2022-08-16T07:35:38;6.20;;;5.90;;
10795;SDS011;5450;42.994;23.372;2022-08-16T07:38:07;5.72;;;5.10;;
10795;SDS011;5450;42.994;23.372;2022-08-16T07:40:34;4.90;;;4.60;;
10795;SDS011;5450;42.994;23.372;2022-08-16T07:43:03;4.80;;;4.60;;
10795;SDS011;5450;42.994;23.372;2022-08-16T07:45:31;5.53;;;4.75;;
10795;SDS011;5450;42.994;23.372;2022-08-16T07:47:59;5.43;;;4.80;;
10795;SDS011;5450;42.994;23.372;2022-08-16T07:50:28;4.90;;;4.70;;
10795;SDS011;5450;42.994;23.372;2022-08-16T07:52:55;4.60;;;4.30;;
10795;SDS011;5450;42.994;23.372;2022-08-16T07:55:22;5.20;;;4.80;;
10795;SDS011;5450;42.994;23.372;2022-08-16T07:57:49;7.22;;;5.00;;
10795;SDS011;5450;42.994;23.372;2022-08-16T08:00:16;4.53;;;4.22;;
10795;SDS011;5450;42.994;23.372;2022-08-16T08:02:47;4.00;;;3.80;;
10795;SDS011;5450;42.994;23.372;2022-08-16T08:05:15;4.20;;;3.95;;
10795;SDS011;5450;42.994;23.372;2022-08-16T08:07:45;4.18;;;3.92;;
10795;SDS011;5450;42.994;23.372;2022-08-16T08:10:14;4.90;;;4.60;;
10795;SDS011;5450;42.994;23.372;2022-08-16T08:12:46;4.93;;;4.00;;
10795;SDS011;5450;42.994;23.372;2022-08-16T08:15:15;3.80;;;3.63;;
10795;SDS011;5450;42.994;23.372;2022-08-16T08:17:44;6.13;;;4.18;;
10795;SDS011;5450;42.994;23.372;2022-08-16T08:20:12;3.92;;;3.72;;
10795;SDS011;5450;42.994;23.372;2022-08-16T08:22:49;4.18;;;3.88;;
10795;SDS011;5450;42.994;23.372;2022-08-16T08:25:17;4.05;;;3.75;;
10795;SDS011;5450;42.994;23.372;2022-08-16T08:27:45;4.25;;;3.88;;
10795;SDS011;5450;42.994;23.372;2022-08-16T08:30:15;4.00;;;3.80;;
10795;SDS011;5450;42.994;23.372;2022-08-16T08:32:43;4.30;;;4.00;;
10795;SDS011;5450;42.994;23.372;2022-08-16T08:35:13;3.92;;;3.72;;
10795;SDS011;5450;42.994;23.372;2022-08-16T08:37:43;5.72;;;3.95;;
10795;SDS011;5450;42.994;23.372;2022-08-16T08:40:15;3.70;;;3.38;;
10795;SDS011;5450;42.994;23.372;2022-08-16T08:42:45;3.50;;;3.40;;
10795;SDS011;5450;42.994;23.372;2022-08-16T08:45:14;3.55;;;3.38;;
10795;SDS011;5450;42.994;23.372;2022-08-16T08:47:42;3.78;;;3.22;;
10795;SDS011;5450;42.994;23.372;2022-08-16T08:50:12;4.70;;;3.90;;
10795;SDS011;5450;42.994;23.372;2022-08-16T08:52:43;4.65;;;3.65;;
10795;SDS011;5450;42.994;23.372;2022-08-16T08:55:12;4.32;;;3.97;;
10795;SDS011;5450;42.994;23.372;2022-08-16T08:57:44;8.73;;;4.03;;
10795;SDS011;5450;42.994;23.372;2022-08-16T09:00:13;4.30;;;4.00;;
10795;SDS011;5450;42.994;23.372;2022-08-16T09:02:42;6.05;;;4.45;;
10795;SDS011;5450;42.994;23.372;2022-08-16T09:05:12;12.15;;;5.20;;
10795;SDS011;5450;42.994;23.372;2022-08-16T09:07:43;15.73;;;4.53;;
10795;SDS011;5450;42.994;23.372;2022-08-16T09:10:12;4.47;;;4.22;;
10795;SDS011;5450;42.994;23.372;2022-08-16T09:12:40;4.47;;;4.00;;
10795;SDS011;5450;42.994;23.372;2022-08-16T09:15:11;4.20;;;3.90;;
10795;SDS011;5450;42.994;23.372;2022-08-16T09:17:40;4.60;;;3.90;;
10795;SDS011;5450;42.994;23.372;2022-08-16T09:20:08;5.32;;;4.10;;
10795;SDS011;5450;42.994;23.372;2022-08-16T09:22:41;4.35;;;4.10;;
10795;SDS011;5450;42.994;23.372;2022-08-16T09:25:11;5.25;;;4.07;;
10795;SDS011;5450;42.994;23.372;2022-08-16T09:27:40;5.32;;;4.20;;
10795;SDS011;5450;42.994;23.372;2022-08-16T09:30:09;4.57;;;4.18;;
10795;SDS011;5450;42.994;23.372;2022-08-16T09:32:37;4.35;;;4.07;;
10795;SDS011;5450;42.994;23.372;2022-08-16T09:35:05;4.40;;;4.20;;
10795;SDS011;5450;42.994;23.372;2022-08-16T09:37:33;4.60;;;4.40;;
10795;SDS011;5450;42.994;23.372;2022-08-16T09:40:00;4.35;;;4.07;;
10795;SDS011;5450;42.994;23.372;2022-08-16T09:42:28;4.50;;;4.10;;
10795;SDS011;5450;42.994;23.372;2022-08-16T09:44:58;4.57;;;4.28;;
10795;SDS011;5450;42.994;23.372;2022-08-16T09:47:27;12.40;;;5.22;;
10795;SDS011;5450;42.994;23.372;2022-08-16T09:49:55;4.97;;;4.68;;
10795;SDS011;5450;42.994;23.372;2022-08-16T09:52:23;5.10;;;4.80;;
10795;SDS011;5450;42.994;23.372;2022-08-16T09:54:51;4.88;;;4.47;;
10795;SDS011;5450;42.994;23.372;2022-08-16T09:57:19;5.03;;;4.63;;
10795;SDS011;5450;42.994;23.372;2022-08-16T09:59:46;11.90;;;5.07;;
10795;SDS011;5450;42.994;23.372;2022-08-16T10:02:15;6.32;;;4.78;;
10795;SDS011;5450;42.994;23.372;2022-08-16T10:04:42;5.05;;;4.75;;
10795;SDS011;5450;42.994;23.372;2022-08-16T10:07:09;5.07;;;4.85;;
10795;SDS011;5450;42.994;23.372;2022-08-16T10:09:36;5.40;;;5.13;;
10795;SDS011;5450;42.994;23.372;2022-08-16T10:12:03;5.28;;;4.97;;
10795;SDS011;5450;42.994;23.372;2022-08-16T10:14:49;5.05;;;4.68;;
10795;SDS011;5450;42.994;23.372;2022-08-16T10:17:18;4.88;;;4.65;;
10795;SDS011;5450;42.994;23.372;2022-08-16T10:19:45;5.47;;;4.82;;
10795;SDS011;5450;42.994;23.372;2022-08-16T10:22:15;5.40;;;5.20;;
10795;SDS011;5450;42.994;23.372;2022-08-16T10:24:42;5.75;;;4.90;;
10795;SDS011;5450;42.994;23.372;2022-08-16T10:27:09;5.22;;;4.93;;
10795;SDS011;5450;42.994;23.372;2022-08-16T10:29:40;5.70;;;5.38;;
10795;SDS011;5450;42.994;23.372;2022-08-16T10:32:07;4.93;;;4.65;;
10795;SDS011;5450;42.994;23.372;2022-08-16T10:34:36;5.60;;;5.30;;
10795;SDS011;5450;42.994;23.372;2022-08-16T10:37:02;11.50;;;5.25;;
10795;SDS011;5450;42.994;23.372;2022-08-16T10:39:30;5.40;;;4.90;;
10795;SDS011;5450;42.994;23.372;2022-08-16T10:41:57;5.05;;;4.70;;
10795;SDS011;5450;42.994;23.372;2022-08-16T10:44:24;7.18;;;4.78;;
10795;SDS011;5450;42.994;23.372;2022-08-16T10:46:51;5.25;;;4.85;;
10795;SDS011;5450;42.994;23.372;2022-08-16T10:49:18;4.95;;;4.55;;
10795;SDS011;5450;42.994;23.372;2022-08-16T10:51:52;4.50;;;4.13;;
10795;SDS011;5450;42.994;23.372;2022-08-16T11:04:01;5.53;;;4.47;;
10795;SDS011;5450;42.994;23.372;2022-08-16T11:06:28;4.28;;;3.97;;
10795;SDS011;5450;42.994;23.372;2022-08-16T11:08:58;4.50;;;4.30;;
10795;SDS011;5450;42.994;23.372;2022-08-16T11:11:25;4.38;;;3.67;;
10795;SDS011;5450;42.994;23.372;2022-08-16T11:13:55;4.05;;;3.75;;
10795;SDS011;5450;42.994;23.372;2022-08-16T11:16:24;3.95;;;3.75;;
10795;SDS011;5450;42.994;23.372;2022-08-16T11:18:52;3.95;;;3.75;;
10795;SDS011;5450;42.994;23.372;2022-08-16T11:21:20;3.90;;;3.70;;
10795;SDS011;5450;42.994;23.372;2022-08-16T11:23:49;4.63;;;4.32;;
10795;SDS011;5450;42.994;23.372;2022-08-16T11:26:20;3.83;;;3.63;;
10795;SDS011;5450;42.994;23.372;2022-08-16T11:28:49;4.22;;;3.92;;
10795;SDS011;5450;42.994;23.372;2022-08-16T11:31:18;4.80;;;4.15;;
10795;SDS011;5450;42.994;23.372;2022-08-16T11:33:49;3.78;;;3.58;;
10795;SDS011;5450;42.994;23.372;2022-08-16T11:36:17;4.57;;;4.20;;
10795;SDS011;5450;42.994;23.372;2022-08-16T11:38:46;4.68;;;4.13;;
10795;SDS011;5450;42.994;23.372;2022-08-16T11:41:20;4.05;;;3.78;;
10795;SDS011;5450;42.994;23.372;2022-08-16T11:43:48;3.92;;;3.63;;
10795;SDS011;5450;42.994;23.372;2022-08-16T11:46:15;4.20;;;3.95;;
10795;SDS011;5450;42.994;23.372;2022-08-16T11:48:49;4.50;;;3.40;;
10795;SDS011;5450;42.994;23.372;2022-08-16T11:51:18;3.72;;;3.53;;
10795;SDS011;5450;42.994;23.372;2022-08-16T11:53:45;3.78;;;3.38;;
10795;SDS011;5450;42.994;23.372;2022-08-16T11:56:14;3.92;;;3.72;;
10795;SDS011;5450;42.994;23.372;2022-08-16T11:58:43;4.07;;;3.72;;
10795;SDS011;5450;42.994;23.372;2022-08-16T12:01:10;4.40;;;3.38;;
10795;SDS011;5450;42.994;23.372;2022-08-16T12:03:39;4.00;;;3.70;;
10795;SDS011;5450;42.994;23.372;2022-08-16T12:06:08;6.53;;;3.75;;
10795;SDS011;5450;42.994;23.372;2022-08-16T12:08:39;3.47;;;3.17;;
10795;SDS011;5450;42.994;23.372;2022-08-16T12:11:08;3.45;;;3.17;;
10795;SDS011;5450;42.994;23.372;2022-08-16T12:13:38;5.47;;;3.15;;
10795;SDS011;5450;42.994;23.372;2022-08-16T12:16:09;4.60;;;3.47;;
10795;SDS011;5450;42.994;23.372;2022-08-16T12:18:37;3.72;;;2.85;;
10795;SDS011;5450;42.994;23.372;2022-08-16T12:21:06;3.60;;;3.30;;
10795;SDS011;5450;42.994;23.372;2022-08-16T12:23:35;3.58;;;2.90;;
10795;SDS011;5450;42.994;23.372;2022-08-16T12:26:02;21.98;;;4.07;;
10795;SDS011;5450;42.994;23.372;2022-08-16T12:28:31;3.30;;;3.10;;
10795;SDS011;5450;42.994;23.372;2022-08-16T12:30:58;4.68;;;3.17;;
10795;SDS011;5450;42.994;23.372;2022-08-16T12:33:28;6.95;;;3.17;;
10795;SDS011;5450;42.994;23.372;2022-08-16T12:35:57;3.17;;;2.88;;
10795;SDS011;5450;42.994;23.372;2022-08-16T12:38:27;6.03;;;3.58;;
10795;SDS011;5450;42.994;23.372;2022-08-16T12:40:59;6.13;;;3.30;;
10795;SDS011;5450;42.994;23.372;2022-08-16T12:43:27;3.42;;;3.22;;
10795;SDS011;5450;42.994;23.372;2022-08-16T12:45:59;3.58;;;3.38;;
10795;SDS011;5450;42.994;23.372;2022-08-16T12:48:29;4.30;;;3.38;;
10795;SDS011;5450;42.994;23.372;2022-08-16T12:51:16;3.17;;;2.97;;
10795;SDS011;5450;42.994;23.372;2022-08-16T12:53:46;3.50;;;3.30;;
10795;SDS011;5450;42.994;23.372;2022-08-16T12:56:14;3.47;;;2.97;;
10795;SDS011;5450;42.994;23.372;2022-08-16T12:58:41;3.28;;;2.95;;
10795;SDS011;5450;42.994;23.372;2022-08-16T13:01:14;3.63;;;3.38;;
10795;SDS011;5450;42.994;23.372;2022-08-16T13:03:44;4.38;;;3.22;;
10795;SDS011;5450;42.994;23.372;2022-08-16T13:06:12;3.08;;;2.88;;
10795;SDS011;5450;42.994;23.372;2022-08-16T13:08:40;3.72;;;3.33;;
10795;SDS011;5450;42.994;23.372;2022-08-16T13:11:08;4.95;;;3.20;;
10795;SDS011;5450;42.994;23.372;2022-08-16T13:13:35;4.25;;;3.42;;
10795;SDS011;5450;42.994;23.372;2022-08-16T13:16:04;3.17;;;2.97;;
10795;SDS011;5450;42.994;23.372;2022-08-16T13:18:31;3.25;;;3.03;;
10795;SDS011;5450;42.994;23.372;2022-08-16T13:21:07;4.00;;;3.38;;
10795;SDS011;5450;42.994;23.372;2022-08-16T13:23:35;3.38;;;3.10;;
10795;SDS011;5450;42.994;23.372;2022-08-16T13:26:03;5.97;;;3.40;;
10795;SDS011;5450;42.994;23.372;2022-08-16T13:28:31;3.42;;;3.10;;
10795;SDS011;5450;42.994;23.372;2022-08-16T13:30:59;3.08;;;2.83;;
10795;SDS011;5450;42.994;23.372;2022-08-16T13:33:31;4.57;;;2.85;;
10795;SDS011;5450;42.994;23.372;2022-08-16T13:36:08;3.40;;;3.10;;
10795;SDS011;5450;42.994;23.372;2022-08-16T13:38:38;3.17;;;3.08;;
10795;SDS011;5450;42.994;23.372;2022-08-16T13:41:06;3.38;;;3.17;;
10795;SDS011;5450;42.994;23.372;2022-08-16T13:43:40;3.70;;;3.15;;
10795;SDS011;5450;42.994;23.372;2022-08-16T13:46:07;5.78;;;3.10;;
10795;SDS011;5450;42.994;23.372;2022-08-16T13:48:35;7.15;;;3.60;;
10795;SDS011;5450;42.994;23.372;2022-08-16T13:51:03;3.33;;;3.13;;
10795;SDS011;5450;42.994;23.372;2022-08-16T13:53:33;3.33;;;3.08;;
10795;SDS011;5450;42.994;23.372;2022-08-16T13:56:00;4.20;;;3.28;;
10795;SDS011;5450;42.994;23.372;2022-08-16T13:58:29;3.78;;;3.33;;
10795;SDS011;5450;42.994;23.372;2022-08-16T14:01:02;13.77;;;3.90;;
10795;SDS011;5450;42.994;23.372;2022-08-16T14:03:29;5.25;;;3.55;;
10795;SDS011;5450;42.994;23.372;2022-08-16T14:05:56;3.28;;;2.97;;
10795;SDS011;5450;42.994;23.372;2022-08-16T14:08:25;3.55;;;3.20;;
10795;SDS011;5450;42.994;23.372;2022-08-16T14:10:53;3.55;;;3.22;;
10795;SDS011;5450;42.994;23.372;2022-08-16T14:13:20;4.80;;;3.70;;
10795;SDS011;5450;42.994;23.372;2022-08-16T14:15:48;4.43;;;3.22;;
10795;SDS011;5450;42.994;23.372;2022-08-16T14:18:17;3.40;;;3.20;;
10795;SDS011;5450;42.994;23.372;2022-08-16T14:20:47;3.45;;;3.25;;
10795;SDS011;5450;42.994;23.372;2022-08-16T14:23:15;3.65;;;3.35;;
10795;SDS011;5450;42.994;23.372;2022-08-16T14:25:43;4.88;;;3.40;;
10795;SDS011;5450;42.994;23.372;2022-08-16T14:28:12;3.75;;;3.17;;
10795;SDS011;5450;42.994;23.372;2022-08-16T14:30:40;4.72;;;3.30;;
10795;SDS011;5450;42.994;23.372;2022-08-16T14:33:07;5.95;;;3.63;;
10795;SDS011;5450;42.994;23.372;2022-08-16T14:35:34;3.47;;;3.17;;
10795;SDS011;5450;42.994;23.372;2022-08-16T14:38:01;3.92;;;3.28;;
10795;SDS011;5450;42.994;23.372;2022-08-16T14:40:30;3.33;;;3.03;;
10795;SDS011;5450;42.994;23.372;2022-08-16T14:42:57;5.50;;;3.20;;
10795;SDS011;5450;42.994;23.372;2022-08-16T14:45:27;2.95;;;2.72;;
10795;SDS011;5450;42.994;23.372;2022-08-16T14:47:55;3.58;;;3.38;;
10795;SDS011;5450;42.994;23.372;2022-08-16T14:50:23;5.82;;;3.25;;
10795;SDS011;5450;42.994;23.372;2022-08-16T14:52:57;3.58;;;3.20;;
10795;SDS011;5450;42.994;23.372;2022-08-16T14:55:42;3.22;;;3.03;;
10795;SDS011;5450;42.994;23.372;2022-08-16T14:58:10;3.80;;;3.60;;
10795;SDS011;5450;42.994;23.372;2022-08-16T15:00:45;4.75;;;3.45;;
10795;SDS011;5450;42.994;23.372;2022-08-16T15:03:13;3.80;;;3.50;;
10795;SDS011;5450;42.994;23.372;2022-08-16T15:05:40;4.80;;;3.70;;
10795;SDS011;5450;42.994;23.372;2022-08-16T15:08:08;7.10;;;3.22;;
10795;SDS011;5450;42.994;23.372;2022-08-16T15:10:36;3.88;;;3.58;;